createdAt,value
2023-02-16T00:00:37.580Z,1.53
2023-02-16T00:03:40.714Z,1.57
2023-02-16T00:06:42.350Z,1.59
2023-02-16T00:09:44.154Z,1.62
2023-02-16T00:13:04.510Z,1.54
2023-02-16T00:16:08.793Z,1.54
2023-02-16T00:19:19.252Z,1.51
2023-02-16T00:22:20.881Z,1.51
2023-02-16T00:25:22.444Z,1.48
2023-02-16T00:28:24.318Z,1.44
2023-02-16T00:31:27.776Z,1.45
2023-02-16T00:34:36.242Z,1.52
2023-02-16T00:37:37.798Z,1.65
2023-02-16T00:47:21.844Z,1.79
2023-02-16T00:50:27.164Z,1.75
2023-02-16T00:53:28.857Z,1.78
2023-02-16T00:56:30.731Z,1.73
2023-02-16T00:59:32.608Z,1.79
2023-02-16T01:02:34.468Z,1.73
2023-02-16T01:05:37.526Z,1.63
2023-02-16T01:08:57.826Z,1.56
2023-02-16T01:12:00.128Z,1.51
2023-02-16T01:15:01.808Z,1.48
2023-02-16T01:18:05.065Z,1.40
2023-02-16T01:21:08.169Z,1.30
2023-02-16T01:24:10.350Z,1.19
2023-02-16T01:27:13.678Z,1.11
2023-02-16T01:30:17.686Z,1.24
2023-02-16T01:33:19.783Z,1.46
2023-02-16T01:36:26.442Z,1.46
2023-02-16T01:39:28.210Z,1.66
2023-02-16T01:42:35.784Z,1.78
2023-02-16T01:45:40.591Z,1.84
2023-02-16T01:48:42.250Z,1.83
2023-02-16T01:51:51.401Z,1.79
2023-02-16T01:54:55.961Z,1.79
2023-02-16T01:58:00.116Z,1.80
2023-02-16T02:01:35.343Z,1.83
2023-02-16T02:04:59.075Z,1.80
2023-02-16T02:08:06.881Z,1.76
2023-02-16T02:11:11.659Z,1.84
2023-02-16T02:14:15.722Z,1.84
2023-02-16T02:17:18.881Z,1.89
2023-02-16T02:20:23.347Z,1.89
2023-02-16T02:23:37.596Z,1.91
2023-02-16T02:26:54.335Z,1.89
2023-02-16T02:30:02.854Z,1.83
2023-02-16T02:33:15.397Z,1.87
2023-02-16T02:36:22.452Z,1.82
2023-02-16T02:39:32.382Z,1.76
2023-02-16T02:42:41.144Z,1.70
2023-02-16T02:45:45.293Z,1.81
2023-02-16T02:48:46.983Z,1.81
2023-02-16T02:51:49.626Z,1.81
2023-02-16T02:55:09.942Z,1.73
2023-02-16T02:58:32.530Z,1.65
2023-02-16T03:01:35.623Z,1.69
2023-02-16T03:04:37.321Z,1.63
2023-02-16T03:07:48.321Z,1.56
2023-02-16T03:11:11.720Z,1.56
2023-02-16T03:14:16.722Z,1.43
2023-02-16T03:17:37.278Z,1.30
2023-02-16T03:20:58.595Z,1.39
2023-02-16T03:24:20.041Z,1.40
2023-02-16T03:27:42.923Z,1.37
2023-02-16T03:30:46.911Z,1.36
2023-02-16T03:33:54.617Z,1.37
2023-02-16T03:36:58.970Z,1.29
2023-02-16T03:40:19.524Z,1.17
2023-02-16T03:43:24.377Z,1.15
2023-02-16T03:46:28.061Z,1.17
2023-02-16T03:49:29.953Z,1.14
2023-02-16T03:52:31.876Z,1.12
2023-02-16T03:55:34.149Z,1.14
2023-02-16T03:58:35.838Z,1.07
2023-02-16T04:01:39.177Z,1.04
2023-02-16T04:04:40.758Z,1.00
2023-02-16T04:07:43.532Z,1.00
2023-02-16T04:10:45.228Z,1.06
2023-02-16T04:13:46.991Z,0.99
2023-02-16T04:16:50.340Z,1.00
2023-02-16T04:19:51.984Z,0.97
2023-02-16T04:22:54.148Z,0.91
2023-02-16T04:25:55.963Z,0.79
2023-02-16T04:28:57.911Z,0.76
2023-02-16T04:32:01.316Z,0.69
2023-02-16T04:35:03.064Z,0.64
2023-02-16T04:38:04.891Z,0.58
2023-02-16T04:41:06.531Z,0.58
2023-02-16T04:44:08.627Z,0.59
2023-02-16T04:47:11.702Z,0.66
2023-02-16T04:50:13.595Z,0.75
2023-02-16T04:53:15.245Z,0.82
2023-02-16T04:56:17.365Z,0.83
2023-02-16T04:59:19.425Z,0.86
2023-02-16T05:02:22.863Z,0.88
2023-02-16T05:05:24.635Z,0.87
2023-02-16T05:08:26.514Z,0.83
2023-02-16T05:11:46.702Z,0.79
2023-02-16T05:14:48.618Z,0.74
2023-02-16T05:17:51.897Z,0.70
2023-02-16T05:21:12.550Z,0.68
2023-02-16T05:24:14.422Z,0.66
2023-02-16T05:27:17.232Z,0.65
2023-02-16T05:30:19.029Z,0.61
2023-02-16T05:33:22.318Z,0.57
2023-02-16T05:36:24.242Z,0.58
2023-02-16T05:39:25.974Z,0.58
2023-02-16T05:42:28.058Z,0.60
2023-02-16T05:45:29.802Z,0.65
2023-02-16T05:48:32.901Z,0.69
2023-02-16T05:51:34.892Z,0.70
2023-02-16T05:54:37.304Z,0.69
2023-02-16T05:57:39.148Z,0.66
2023-02-16T06:00:40.770Z,0.70
2023-02-16T06:03:44.215Z,0.77
2023-02-16T06:06:46.020Z,0.83
2023-02-16T06:09:47.841Z,0.85
2023-02-16T06:12:49.687Z,0.83
2023-02-16T06:15:52.557Z,0.84
2023-02-16T06:18:56.195Z,0.79
2023-02-16T06:21:57.950Z,0.82
2023-02-16T06:24:59.644Z,0.82
2023-02-16T06:28:01.571Z,0.82
2023-02-16T06:31:03.777Z,0.84
2023-02-16T06:34:07.475Z,0.92
2023-02-16T06:37:09.234Z,0.94
2023-02-16T06:40:11.842Z,0.93
2023-02-16T06:43:13.774Z,0.88
2023-02-16T06:46:15.662Z,0.92
2023-02-16T06:49:19.948Z,0.96
2023-02-16T06:52:22.026Z,1.03
2023-02-16T06:55:23.960Z,1.08
2023-02-16T06:58:25.555Z,1.06
2023-02-16T07:01:27.988Z,1.04
2023-02-16T07:04:31.082Z,1.05
2023-02-16T07:07:33.054Z,1.00
2023-02-16T07:10:47.748Z,0.93
2023-02-16T07:13:51.584Z,0.84
2023-02-16T07:16:53.251Z,0.74
2023-02-16T07:19:58.881Z,0.66
2023-02-16T07:23:01.521Z,0.61
2023-02-16T07:26:03.544Z,0.57
2023-02-16T07:29:05.619Z,0.50
2023-02-16T07:32:07.355Z,0.48
2023-02-16T07:35:10.847Z,0.52
2023-02-16T07:38:13.122Z,0.59
2023-02-16T07:41:15.308Z,0.68
2023-02-16T07:44:16.864Z,0.74
2023-02-16T07:47:18.496Z,0.82
2023-02-16T07:50:21.605Z,0.96
2023-02-16T07:53:23.209Z,1.05
2023-02-16T07:56:26.397Z,1.09
2023-02-16T07:59:28.198Z,1.12
2023-02-16T08:02:30.095Z,1.14
2023-02-16T08:05:34.079Z,1.23
2023-02-16T08:08:36.372Z,1.29
2023-02-16T08:11:38.062Z,1.38
2023-02-16T08:14:40.118Z,1.51
2023-02-16T08:17:41.691Z,1.57
2023-02-16T08:21:03.860Z,1.68
2023-02-16T08:24:07.878Z,1.68
2023-02-16T08:27:09.770Z,1.79
2023-02-16T08:30:12.973Z,1.91
2023-02-16T08:33:14.824Z,1.79
2023-02-16T08:36:18.910Z,1.74
2023-02-16T08:39:21.286Z,1.79
2023-02-16T08:42:23.033Z,1.79
2023-02-16T08:45:24.844Z,1.76
2023-02-16T08:48:28.826Z,1.83
2023-02-16T08:51:34.777Z,1.87
2023-02-16T08:54:36.407Z,1.89
2023-02-16T08:57:38.027Z,1.94
2023-02-16T09:00:39.931Z,1.98
2023-02-16T09:03:42.924Z,1.98
2023-02-16T09:06:46.409Z,2.07
2023-02-16T09:09:48.346Z,2.15
2023-02-16T09:12:49.990Z,2.14
2023-02-16T09:15:51.739Z,2.18
2023-02-16T09:18:53.774Z,2.15
2023-02-16T09:21:56.967Z,2.16
2023-02-16T09:24:58.526Z,2.17
2023-02-16T09:28:01.065Z,2.17
2023-02-16T09:31:08.660Z,2.28
2023-02-16T09:34:16.274Z,2.33
2023-02-16T09:37:19.260Z,2.27
2023-02-16T09:40:21.099Z,2.31
2023-02-16T09:43:33.728Z,2.38
2023-02-16T09:46:36.782Z,2.48
2023-02-16T09:49:40.932Z,2.59
2023-02-16T09:52:47.584Z,2.68
2023-02-16T09:55:54.521Z,2.59
2023-02-16T09:58:58.180Z,2.55
2023-02-16T10:02:03.020Z,2.59
2023-02-16T10:05:24.012Z,2.47
2023-02-16T10:08:30.100Z,2.41
2023-02-16T10:11:47.563Z,2.51
2023-02-16T10:14:51.670Z,2.58
2023-02-16T10:17:56.008Z,2.68
2023-02-16T10:20:59.837Z,2.82
2023-02-16T10:24:03.989Z,2.96
2023-02-16T10:27:08.511Z,3.08
2023-02-16T10:30:15.265Z,3.14
2023-02-16T10:33:22.885Z,3.19
2023-02-16T10:36:29.258Z,3.23
2023-02-16T10:39:36.830Z,3.32
2023-02-16T10:42:43.757Z,3.38
2023-02-16T10:45:51.974Z,3.38
2023-02-16T10:48:55.134Z,3.46
2023-02-16T10:51:57.178Z,3.59
2023-02-16T10:55:03.823Z,3.64
2023-02-16T10:58:13.613Z,3.64
2023-02-16T11:01:16.412Z,3.67
2023-02-16T11:04:33.294Z,3.73
2023-02-16T11:11:09.457Z,3.81
2023-02-16T11:14:22.385Z,3.93
2023-02-16T11:17:24.909Z,4.07
2023-02-16T11:20:33.143Z,4.13
2023-02-16T11:23:35.334Z,4.23
2023-02-16T11:26:39.206Z,4.36
2023-02-16T11:29:41.068Z,4.48
2023-02-16T11:32:43.002Z,4.67
2023-02-16T11:35:44.855Z,4.69
2023-02-16T11:38:56.282Z,4.65
2023-02-16T11:42:01.865Z,4.64
2023-02-16T11:45:04.830Z,4.64
2023-02-16T11:48:07.420Z,4.71
2023-02-16T11:51:10.701Z,4.75
2023-02-16T11:54:16.880Z,4.94
2023-02-16T11:57:24.785Z,5.33
2023-02-16T12:00:27.658Z,5.65
2023-02-16T12:03:56.945Z,5.78
2023-02-16T12:07:03.720Z,5.65
2023-02-16T12:10:08.797Z,5.55
2023-02-16T12:13:18.095Z,5.51
2023-02-16T12:16:27.982Z,5.60
2023-02-16T12:19:36.816Z,5.66
2023-02-16T12:22:41.756Z,5.65
2023-02-16T12:25:49.293Z,5.73
2023-02-16T12:29:02.934Z,5.78
2023-02-16T12:32:22.308Z,5.85
2023-02-16T12:35:41.436Z,6.12
2023-02-16T12:38:48.648Z,6.46
2023-02-16T12:41:57.390Z,6.51
2023-02-16T12:45:03.096Z,6.40
2023-02-16T12:48:21.806Z,6.24
2023-02-16T12:51:26.601Z,6.02
2023-02-16T12:54:30.097Z,5.92
2023-02-16T12:57:32.040Z,5.84
2023-02-16T13:00:46.194Z,5.87
2023-02-16T13:03:50.556Z,5.85
2023-02-16T13:06:56.861Z,5.94
2023-02-16T13:10:01.932Z,5.95
2023-02-16T13:13:06.539Z,5.97
2023-02-16T13:16:28.725Z,6.04
2023-02-16T13:19:31.842Z,6.13
2023-02-16T13:22:49.649Z,6.21
2023-02-16T13:25:57.991Z,6.26
2023-02-16T13:29:14.794Z,6.34
2023-02-16T13:32:28.472Z,6.43
2023-02-16T13:35:40.587Z,6.59
2023-02-16T13:39:15.651Z,6.54
2023-02-16T13:42:38.581Z,6.69
2023-02-16T13:45:41.186Z,6.84
2023-02-16T13:48:47.639Z,6.88
2023-02-16T13:51:49.945Z,6.86
2023-02-16T13:54:51.603Z,6.81
2023-02-16T13:58:04.831Z,6.76
2023-02-16T14:01:25.258Z,6.84
2023-02-16T14:04:45.567Z,6.89
2023-02-16T14:08:08.275Z,7.01
2023-02-16T14:11:10.904Z,7.13
2023-02-16T14:14:25.517Z,7.14
2023-02-16T14:17:28.445Z,7.23
2023-02-16T14:20:30.291Z,7.22
2023-02-16T14:23:37.374Z,7.20
2023-02-16T14:26:52.653Z,7.17
2023-02-16T14:29:56.796Z,7.11
2023-02-16T14:33:01.639Z,7.10
2023-02-16T14:36:12.122Z,7.07
2023-02-16T14:39:18.858Z,7.09
2023-02-16T14:42:26.425Z,7.17
2023-02-16T14:45:42.867Z,7.23
2023-02-16T14:48:50.543Z,7.20
2023-02-16T14:52:03.822Z,7.19
2023-02-16T14:55:36.387Z,7.16
2023-02-16T14:58:44.731Z,7.12
2023-02-16T15:01:47.127Z,7.09
2023-02-16T15:04:48.982Z,7.09
2023-02-16T15:07:52.428Z,7.08
2023-02-16T15:10:58.452Z,7.08
2023-02-16T15:14:08.016Z,7.02
2023-02-16T15:17:10.391Z,6.99
2023-02-16T15:20:19.676Z,6.98
2023-02-16T15:23:22.516Z,6.97
2023-02-16T15:26:25.301Z,6.93
2023-02-16T15:29:29.383Z,6.85
2023-02-16T15:32:32.198Z,6.68
2023-02-16T15:35:35.650Z,6.54
2023-02-16T15:38:38.989Z,6.47
2023-02-16T15:41:43.573Z,6.42
2023-02-16T15:44:48.136Z,6.41
2023-02-16T15:47:49.847Z,6.37
2023-02-16T15:50:53.538Z,6.34
2023-02-16T15:53:56.487Z,6.30
2023-02-16T15:56:59.142Z,6.24
2023-02-16T16:00:03.845Z,6.19
2023-02-16T16:03:15.870Z,6.16
2023-02-16T16:06:17.428Z,6.13
2023-02-16T16:09:22.579Z,6.12
2023-02-16T16:12:25.086Z,6.09
2023-02-16T16:15:29.712Z,6.07
2023-02-16T16:18:37.390Z,6.00
2023-02-16T16:21:45.758Z,5.96
2023-02-16T16:24:48.620Z,5.94
2023-02-16T16:27:50.406Z,5.94
2023-02-16T16:31:07.157Z,5.92
2023-02-16T16:34:10.781Z,5.89
2023-02-16T16:37:22.166Z,5.86
2023-02-16T16:40:25.887Z,5.83
2023-02-16T16:43:28.460Z,5.78
2023-02-16T16:46:32.672Z,5.72
2023-02-16T16:49:37.305Z,5.66
2023-02-16T16:52:40.628Z,5.65
2023-02-16T16:55:42.443Z,5.65
2023-02-16T16:58:47.629Z,5.61
2023-02-16T17:01:52.850Z,5.58
2023-02-16T17:04:54.592Z,5.53
2023-02-16T17:07:56.263Z,5.50
2023-02-16T17:10:58.066Z,5.46
2023-02-16T17:14:05.001Z,5.43
2023-02-16T17:17:11.724Z,5.41
2023-02-16T17:20:13.524Z,5.42
2023-02-16T17:23:16.424Z,5.42
2023-02-16T17:26:18.075Z,5.41
2023-02-16T17:29:19.770Z,5.40
2023-02-16T17:32:24.342Z,5.40
2023-02-16T17:35:26.221Z,5.39
2023-02-16T17:38:28.012Z,5.36
2023-02-16T17:41:30.202Z,5.34
2023-02-16T17:44:31.815Z,5.31
2023-02-16T17:47:34.839Z,5.29
2023-02-16T17:50:36.467Z,5.22
2023-02-16T17:53:38.142Z,5.19
2023-02-16T17:56:40.020Z,5.17
2023-02-16T17:59:42.480Z,5.14
2023-02-16T18:02:45.486Z,5.10
2023-02-16T18:05:47.123Z,5.07
2023-02-16T18:08:48.602Z,5.06
2023-02-16T18:11:50.561Z,5.03
2023-02-16T18:14:52.258Z,4.99
2023-02-16T18:17:55.569Z,5.02
2023-02-16T18:20:57.192Z,5.04
2023-02-16T18:23:58.778Z,5.05
2023-02-16T18:27:00.484Z,5.06
2023-02-16T18:30:02.242Z,5.07
2023-02-16T18:33:05.146Z,5.09
2023-02-16T18:36:08.438Z,5.10
2023-02-16T18:39:10.357Z,5.11
2023-02-16T18:42:12.027Z,5.13
2023-02-16T18:45:13.837Z,5.15
2023-02-16T18:48:16.754Z,5.18
2023-02-16T18:51:18.723Z,5.17
2023-02-16T18:54:20.278Z,5.17
2023-02-16T18:57:22.658Z,5.18
2023-02-16T19:00:24.312Z,5.21
2023-02-16T19:03:29.818Z,5.19
2023-02-16T19:06:31.927Z,5.17
2023-02-16T19:09:33.751Z,5.16
2023-02-16T19:12:35.337Z,5.13
2023-02-16T19:15:37.968Z,5.10
2023-02-16T19:18:40.974Z,5.08
2023-02-16T19:21:44.333Z,5.08
2023-02-16T19:24:46.101Z,5.07
2023-02-16T19:27:48.271Z,5.05
2023-02-16T19:30:50.299Z,5.03
2023-02-16T19:33:53.313Z,5.03
2023-02-16T19:36:55.084Z,5.01
2023-02-16T19:39:56.695Z,4.99
2023-02-16T19:42:58.433Z,4.95
2023-02-16T19:46:02.267Z,4.91
2023-02-16T19:49:05.346Z,4.89
2023-02-16T19:52:07.010Z,4.87
2023-02-16T19:55:10.633Z,4.86
2023-02-16T19:58:13.093Z,4.85
2023-02-16T20:01:16.028Z,4.85
2023-02-16T20:04:19.125Z,4.85
2023-02-16T20:07:20.878Z,4.84
2023-02-16T20:10:22.541Z,4.83
2023-02-16T20:13:24.323Z,4.82
2023-02-16T20:16:27.059Z,4.79
2023-02-16T20:19:30.069Z,4.77
2023-02-16T20:22:31.732Z,4.74
2023-02-16T20:25:33.519Z,4.68
2023-02-16T20:28:35.287Z,4.62
2023-02-16T20:31:41.273Z,4.51
2023-02-16T20:34:44.371Z,4.45
2023-02-16T20:37:46.163Z,4.44
2023-02-16T20:40:48.121Z,4.42
2023-02-16T20:43:50.164Z,4.42
2023-02-16T20:46:52.002Z,4.43
2023-02-16T20:49:55.157Z,4.45
2023-02-16T20:52:56.737Z,4.50
2023-02-16T20:56:02.797Z,4.55
2023-02-16T20:59:04.907Z,4.57
2023-02-16T21:02:07.043Z,4.58
2023-02-16T21:05:10.295Z,4.58
2023-02-16T21:08:11.995Z,4.55
2023-02-16T21:11:14.073Z,4.52
2023-02-16T21:14:15.820Z,4.52
2023-02-16T21:17:17.939Z,4.53
2023-02-16T21:20:21.019Z,4.50
2023-02-16T21:23:22.646Z,4.49
2023-02-16T21:26:25.287Z,4.49
2023-02-16T21:29:27.055Z,4.54
2023-02-16T21:32:28.952Z,4.56
2023-02-16T21:35:32.914Z,4.59
2023-02-16T21:38:35.499Z,4.66
2023-02-16T21:41:37.045Z,4.70
2023-02-16T21:44:43.219Z,4.69
2023-02-16T21:48:04.529Z,4.68
2023-02-16T21:51:07.601Z,4.67
2023-02-16T21:54:12.643Z,4.69
2023-02-16T21:57:15.435Z,4.69
2023-02-16T22:00:17.376Z,4.70
2023-02-16T22:03:20.373Z,4.71
2023-02-16T22:06:24.718Z,4.78
2023-02-16T22:09:26.297Z,4.82
2023-02-16T22:12:28.103Z,4.82
2023-02-16T22:15:29.774Z,4.82
2023-02-16T22:18:31.318Z,4.83
2023-02-16T22:21:38.673Z,4.84
2023-02-16T22:24:40.612Z,4.83
2023-02-16T22:27:42.470Z,4.85
2023-02-16T22:30:45.407Z,4.86
2023-02-16T22:33:47.194Z,4.88
2023-02-16T22:36:50.429Z,4.92
2023-02-16T22:39:55.219Z,4.93
2023-02-16T22:43:00.254Z,4.98
2023-02-16T22:46:05.028Z,4.99
2023-02-16T22:49:07.134Z,5.03
2023-02-16T22:52:11.696Z,5.03
2023-02-16T22:55:13.459Z,5.04
2023-02-16T22:58:15.159Z,5.08
2023-02-16T23:01:18.333Z,5.14
2023-02-16T23:04:20.267Z,5.16
2023-02-16T23:07:23.469Z,5.21
2023-02-16T23:10:25.120Z,5.23
2023-02-16T23:13:31.594Z,5.30
2023-02-16T23:16:33.439Z,5.32
2023-02-16T23:19:35.187Z,5.29
2023-02-16T23:22:38.445Z,5.35
2023-02-16T23:25:43.634Z,5.34
2023-02-16T23:28:45.600Z,5.35
2023-02-16T23:31:48.152Z,5.41
2023-02-16T23:34:49.851Z,5.43
2023-02-16T23:37:52.754Z,5.45
2023-02-16T23:40:55.220Z,5.45
2023-02-16T23:43:56.897Z,5.45
2023-02-16T23:46:58.515Z,5.48
2023-02-16T23:50:00.827Z,5.51
2023-02-16T23:53:03.866Z,5.49
2023-02-16T23:56:06.826Z,5.50
2023-02-16T23:59:08.670Z,5.52
